Time;durP1;ratioP1;P1;durP2;ratioP2;P2;SDS_P1;SDS_P2;PMS_P1;PMS_P2;Temp;Humidity;BMP_temperature;BMP_pressure;BME280_temperature;BME280_humidity;BME280_pressure;Samples;Min_cycle;Max_cycle;Signal;HPM_P1;HPM_P2
2022/08/18 00:01:48;;;;;;;2.97;2.30;;;;;;;25.85;56.38;100669.81;5075863;28;20388;-72
2022/08/18 00:04:16;;;;;;;4.18;3.38;;;;;;;25.87;58.14;100656.91;5075890;28;20127;-71
2022/08/18 00:07:10;;;;;;;6.18;3.45;;;;;;;25.89;58.14;100655.72;5076164;28;20412;-72
2022/08/18 00:09:39;;;;;;;5.15;3.03;;;;;;;25.93;57.31;100650.78;5075995;28;20051;-72
2022/08/18 00:12:24;;;;;;;5.43;3.53;;;;;;;25.95;57.81;100647.88;5076098;28;20059;-72
2022/08/18 00:14:53;;;;;;;6.30;3.72;;;;;;;25.96;59.39;100644.97;5075755;28;20051;-72
2022/08/18 00:17:21;;;;;;;7.32;3.40;;;;;;;25.96;57.38;100636.81;5081588;28;20040;-72
2022/08/18 00:19:49;;;;;;;6.20;3.92;;;;;;;25.97;57.08;100633.13;5096013;28;20044;-72
2022/08/18 00:22:18;;;;;;;4.72;3.63;;;;;;;25.97;56.84;100627.69;5096233;28;20055;-72
2022/08/18 00:24:49;;;;;;;6.00;3.55;;;;;;;26.00;56.97;100629.19;5095945;28;20048;-72
2022/08/18 00:27:22;;;;;;;7.57;3.83;;;;;;;26.03;57.02;100629.66;5096094;28;20042;-72
2022/08/18 00:29:57;;;;;;;6.95;3.97;;;;;;;26.05;57.89;100615.91;5095943;28;20051;-73
2022/08/18 00:32:28;;;;;;;4.97;3.17;;;;;;;26.08;57.73;100619.09;5096934;28;20047;-72
2022/08/18 00:34:55;;;;;;;6.85;3.65;;;;;;;26.09;57.19;100609.97;5096662;28;20051;-72
2022/08/18 00:37:23;;;;;;;5.40;3.10;;;;;;;26.12;57.13;100616.88;5096860;28;20051;-72
2022/08/18 00:39:52;;;;;;;6.70;4.30;;;;;;;26.16;57.37;100614.63;5094630;28;20044;-72
2022/08/18 00:42:24;;;;;;;7.05;3.30;;;;;;;26.17;56.99;100606.34;5096655;28;20049;-72
2022/08/18 00:45:00;;;;;;;7.80;3.53;;;;;;;26.20;56.87;100600.53;5096059;28;20066;-72
2022/08/18 00:47:29;;;;;;;3.95;3.45;;;;;;;26.22;56.26;100603.06;5096732;28;20375;-72
2022/08/18 00:50:13;;;;;;;7.10;3.63;;;;;;;26.25;56.59;100589.13;5096318;28;20040;-72
2022/08/18 00:52:52;;;;;;;4.63;2.97;;;;;;;26.26;56.11;100577.25;5095462;28;20052;-72
2022/08/18 00:55:21;;;;;;;7.03;3.70;;;;;;;26.28;56.51;100586.88;5095909;28;20051;-72
2022/08/18 00:57:53;;;;;;;4.65;3.08;;;;;;;26.29;56.37;100591.31;5095630;28;20043;-72
2022/08/18 01:00:21;;;;;;;5.05;3.05;;;;;;;26.31;56.56;100591.94;5095555;28;20047;-72
2022/08/18 01:02:55;;;;;;;6.95;4.28;;;;;;;26.32;56.12;100579.22;5096072;28;20427;-72
2022/08/18 01:05:36;;;;;;;4.75;3.33;;;;;;;26.33;56.16;100579.06;5096135;28;20044;-72
2022/08/18 01:08:04;;;;;;;5.95;3.20;;;;;;;26.34;56.28;100580.72;5095979;28;20051;-72
2022/08/18 01:10:33;;;;;;;5.85;3.30;;;;;;;26.36;56.23;100578.66;5095610;28;20047;-72
2022/08/18 01:13:00;;;;;;;6.40;3.63;;;;;;;26.36;56.13;100577.81;5110845;28;20059;-73
2022/08/18 01:15:28;;;;;;;5.15;3.05;;;;;;;26.38;55.98;100575.78;5094670;28;20040;-72
2022/08/18 01:23:35;;;;;;;4.45;2.67;;;;;;;26.43;55.99;100605.09;5095405;28;20392;-72
2022/08/18 01:26:03;;;;;;;5.00;3.15;;;;;;;26.43;55.84;100602.38;5095059;28;20514;-73
2022/08/18 01:28:37;;;;;;;3.97;2.63;;;;;;;26.44;56.22;100587.75;5095078;28;20071;-72
2022/08/18 01:31:06;;;;;;;4.00;2.88;;;;;;;26.45;55.95;100586.75;5095565;28;20059;-72
2022/08/18 01:33:37;;;;;;;4.28;2.95;;;;;;;26.46;55.79;100592.03;5095495;28;20048;-72
2022/08/18 01:36:18;;;;;;;6.22;2.75;;;;;;;26.47;56.13;100590.16;5095211;28;20048;-72
2022/08/18 01:38:51;;;;;;;3.97;3.15;;;;;;;26.48;55.59;100589.13;5095008;28;20036;-72
2022/08/18 01:41:21;;;;;;;4.18;2.45;;;;;;;26.48;55.62;100592.66;5095220;28;20487;-72
2022/08/18 01:43:58;;;;;;;4.60;2.70;;;;;;;26.49;55.94;100593.50;5094713;28;20407;-72
2022/08/18 01:46:28;;;;;;;3.03;2.40;;;;;;;26.49;55.96;100599.78;5094672;28;20055;-72
2022/08/18 01:49:00;;;;;;;4.47;3.22;;;;;;;26.51;55.70;100599.59;5095792;28;20356;-72
2022/08/18 01:51:30;;;;;;;4.35;2.75;;;;;;;26.51;55.85;100624.88;5094602;28;20052;-72
2022/08/18 01:54:12;;;;;;;4.00;2.60;;;;;;;26.52;55.66;100625.72;5093265;28;20059;-72
2022/08/18 01:56:41;;;;;;;4.15;2.80;;;;;;;26.53;55.79;100616.53;5093563;28;20056;-72
2022/08/18 01:59:13;;;;;;;3.95;2.40;;;;;;;26.54;55.70;100618.25;5093348;28;20048;-72
2022/08/18 02:01:42;;;;;;;;;;;;;;;26.54;55.79;100638.09;5095466;28;20044;-72
2022/08/18 02:04:23;;;;;;;4.85;2.60;;;;;;;26.55;55.72;100647.06;5094334;28;19927;-72
2022/08/18 02:07:06;;;;;;;4.35;2.60;;;;;;;26.56;55.73;100662.34;5094303;28;20048;-72
2022/08/18 02:09:36;;;;;;;3.70;2.67;;;;;;;26.57;55.49;100666.72;5094784;28;20044;-71
2022/08/18 02:12:06;;;;;;;4.35;2.65;;;;;;;26.57;55.64;100650.44;5094872;28;20050;-72
2022/08/18 02:14:35;;;;;;;4.15;2.92;;;;;;;26.57;55.76;100651.28;5094161;28;20047;-72
2022/08/18 02:17:06;;;;;;;3.85;2.50;;;;;;;26.59;55.88;100695.41;5094679;28;20048;-72
2022/08/18 02:19:37;;;;;;;3.33;2.38;;;;;;;26.61;55.76;100719.63;5094832;28;20471;-72
2022/08/18 02:22:06;;;;;;;4.72;3.10;;;;;;;26.61;55.67;100761.22;5094382;28;20044;-72
2022/08/18 02:24:33;;;;;;;5.43;2.83;;;;;;;26.62;55.79;100808.25;5094112;28;20048;-72
2022/08/18 02:27:00;;;;;;;4.03;2.97;;;;;;;26.63;55.75;100851.50;5094111;28;20044;-72
2022/08/18 02:29:28;;;;;;;5.35;2.67;;;;;;;26.65;55.53;100861.31;5094737;28;20040;-72
2022/08/18 02:31:55;;;;;;;5.45;2.58;;;;;;;26.65;55.55;100836.88;5093305;28;20044;-72
2022/08/18 02:34:23;;;;;;;3.88;2.45;;;;;;;26.66;55.70;100816.84;5093867;28;20048;-72
2022/08/18 02:36:50;;;;;;;4.25;2.63;;;;;;;26.67;56.09;100772.41;5093814;28;20518;-72
2022/08/18 02:39:17;;;;;;;5.05;2.83;;;;;;;26.67;55.68;100739.81;5094291;28;20475;-72
2022/08/18 02:41:45;;;;;;;3.53;2.83;;;;;;;26.66;55.52;100727.22;5094288;28;20044;-72
2022/08/18 02:44:13;;;;;;;6.07;3.03;;;;;;;26.68;56.19;100689.91;5093364;28;20044;-72
2022/08/18 02:46:40;;;;;;;4.82;3.08;;;;;;;26.67;56.43;100655.63;5093981;28;20052;-72
2022/08/18 02:49:08;;;;;;;4.13;2.95;;;;;;;26.67;56.58;100632.03;5094492;28;20036;-72
2022/08/18 02:51:35;;;;;;;5.22;3.22;;;;;;;26.68;56.16;100617.41;5093685;28;20047;-72
2022/08/18 02:54:07;;;;;;;5.50;3.45;;;;;;;26.69;56.36;100607.38;5094192;28;20044;-72
2022/08/18 02:56:35;;;;;;;4.80;3.08;;;;;;;26.69;56.46;100613.66;5093635;28;20040;-72
2022/08/18 02:59:11;;;;;;;4.78;2.85;;;;;;;26.69;56.54;100613.66;5094130;28;20399;-72
2022/08/18 03:01:42;;;;;;;4.32;3.00;;;;;;;26.69;56.07;100610.94;5094166;28;20058;-72
2022/08/18 03:04:13;;;;;;;5.45;2.92;;;;;;;26.70;55.78;100617.22;5093569;28;20056;-72
2022/08/18 03:06:41;;;;;;;4.97;3.00;;;;;;;26.71;55.68;100618.94;5094331;28;20043;-72
2022/08/18 03:09:11;;;;;;;3.63;2.65;;;;;;;26.72;55.93;100596.16;5093426;28;20483;-72
2022/08/18 03:11:39;;;;;;;3.50;2.85;;;;;;;26.71;55.50;100587.19;5093496;28;20040;-72
2022/08/18 03:14:06;;;;;;;5.00;2.92;;;;;;;26.72;55.89;100583.44;5093457;28;20506;-72
2022/08/18 03:16:40;;;;;;;5.05;3.15;;;;;;;26.73;55.58;100584.25;5093743;28;20434;-72
2022/08/18 03:19:27;;;;;;;4.80;3.20;;;;;;;26.74;55.57;100575.06;5093849;28;20056;-72
2022/08/18 03:21:57;;;;;;;6.10;2.90;;;;;;;26.74;55.74;100575.94;5094090;28;20361;-72
2022/08/18 03:24:30;;;;;;;4.88;3.22;;;;;;;26.74;55.88;100572.38;5093620;28;20403;-72
2022/08/18 03:27:02;;;;;;;5.28;3.17;;;;;;;26.75;55.80;100574.06;5092206;28;20491;-72
2022/08/18 03:29:29;;;;;;;4.78;3.13;;;;;;;26.75;56.01;100555.06;5093922;28;20040;-72
2022/08/18 03:32:01;;;;;;;6.70;3.75;;;;;;;26.76;56.29;100545.88;5093296;28;20044;-72
2022/08/18 03:34:29;;;;;;;4.95;3.70;;;;;;;26.76;56.12;100557.56;5093626;28;20483;-72
2022/08/18 03:36:57;;;;;;;4.15;3.17;;;;;;;26.76;56.18;100570.31;5097720;28;20044;-72
2022/08/18 03:39:26;;;;;;;5.55;3.22;;;;;;;26.78;56.26;100562.81;5097020;28;20478;-72
2022/08/18 03:41:55;;;;;;;5.78;3.40;;;;;;;26.79;56.59;100559.09;5097149;28;20481;-72
2022/08/18 03:44:29;;;;;;;5.78;3.50;;;;;;;26.80;56.29;100549.91;5097968;28;20044;-72
2022/08/18 03:46:57;;;;;;;8.82;4.10;;;;;;;26.79;56.60;100548.22;5097583;28;20044;-72
2022/08/18 03:49:25;;;;;;;6.03;3.38;;;;;;;26.80;56.60;100542.59;5096882;28;20044;-72
2022/08/18 03:51:53;;;;;;;5.55;3.42;;;;;;;26.79;56.60;100542.78;5096148;28;20052;-72
2022/08/18 03:54:22;;;;;;;5.03;3.38;;;;;;;26.80;56.36;100531.72;5096810;28;20055;-72
2022/08/18 03:56:49;;;;;;;4.65;3.70;;;;;;;26.80;56.30;100534.44;5097413;28;20052;-72
2022/08/18 03:59:20;;;;;;;5.90;3.47;;;;;;;26.81;56.69;100527.97;5096825;28;20051;-72
2022/08/18 04:01:50;;;;;;;6.18;3.80;;;;;;;26.81;57.81;100519.00;5097068;28;20044;-72
2022/08/18 04:04:20;;;;;;;6.75;4.13;;;;;;;26.82;57.98;100524.25;5096528;28;20059;-72
2022/08/18 04:06:53;;;;;;;5.53;3.38;;;;;;;26.82;57.86;100532.41;5097530;28;20044;-72
2022/08/18 04:09:23;;;;;;;7.32;4.60;;;;;;;26.81;58.88;100546.97;5097212;28;20095;-72
2022/08/18 04:11:51;;;;;;;8.60;5.93;;;;;;;26.80;60.40;100548.03;5095820;28;20353;-72
2022/08/18 04:14:23;;;;;;;10.70;6.75;;;;;;;26.77;60.66;100532.09;5095651;28;20044;-72
2022/08/18 04:16:51;;;;;;;8.35;7.10;;;;;;;26.75;60.94;100522.47;5096989;28;20479;-72
2022/08/18 04:19:18;;;;;;;9.55;6.88;;;;;;;26.74;61.21;100516.19;5096693;28;20051;-72
2022/08/18 04:21:56;;;;;;;10.07;8.13;;;;;;;26.71;61.65;100499.44;5096471;28;20372;-72
2022/08/18 04:24:29;;;;;;;11.00;9.23;;;;;;;26.70;61.46;100492.31;5096271;28;20048;-73
2022/08/18 04:27:00;;;;;;;14.82;11.02;;;;;;;26.65;61.81;100478.47;5096838;28;20044;-73
2022/08/18 04:29:28;;;;;;;9.82;8.68;;;;;;;26.62;61.86;100475.09;5095061;28;20048;-73
2022/08/18 04:31:55;;;;;;;12.88;9.10;;;;;;;26.61;61.98;100475.28;5096108;28;20040;-73
2022/08/18 04:34:23;;;;;;;12.38;9.38;;;;;;;26.59;62.11;100463.78;5094746;28;20040;-72
2022/08/18 04:36:53;;;;;;;11.93;9.43;;;;;;;26.56;62.00;100456.84;5096276;28;20399;-72
2022/08/18 04:39:22;;;;;;;10.18;9.18;;;;;;;26.55;62.15;100460.59;5096592;28;20047;-72
2022/08/18 04:41:51;;;;;;;12.20;9.05;;;;;;;26.54;62.13;100458.91;5096237;28;20379;-73
2022/08/18 04:44:20;;;;;;;10.75;8.50;;;;;;;26.54;61.92;100466.22;5095924;28;20372;-73
2022/08/18 04:46:50;;;;;;;13.70;8.20;;;;;;;26.55;62.07;100479.59;5095769;28;20107;-72
2022/08/18 04:49:21;;;;;;;9.93;8.15;;;;;;;26.55;61.98;100487.75;5094856;28;20063;-72
2022/08/18 04:54:57;;;;;;;9.20;7.80;;;;;;;26.55;61.95;100485.03;5114637;28;20059;-73
2022/08/18 04:57:25;;;;;;;10.35;8.15;;;;;;;26.55;61.69;100495.88;5114425;28;20056;-73
2022/08/18 04:59:53;;;;;;;8.82;6.88;;;;;;;26.56;61.70;100491.28;5114062;28;20056;-73
2022/08/18 05:02:21;;;;;;;9.90;7.47;;;;;;;26.57;61.94;100499.25;5113926;28;20043;-72
2022/08/18 05:04:48;;;;;;;10.52;7.95;;;;;;;26.58;62.34;100514.53;5113763;28;20052;-73
2022/08/18 05:07:21;;;;;;;11.35;7.72;;;;;;;26.59;62.07;100529.78;5097203;28;20047;-72
2022/08/18 05:09:50;;;;;;;8.85;7.43;;;;;;;26.60;62.03;100534.16;5097771;28;20058;-73
2022/08/18 05:12:18;;;;;;;8.63;7.80;;;;;;;26.62;62.00;100528.56;5114144;28;20113;-72
2022/08/18 05:14:50;;;;;;;9.02;6.63;;;;;;;26.61;61.52;100514.13;5114189;28;20368;-73
2022/08/18 05:17:18;;;;;;;11.20;7.07;;;;;;;26.62;61.47;100520.41;5096777;28;20048;-72
2022/08/18 05:19:45;;;;;;;10.50;7.80;;;;;;;26.62;61.70;100521.25;5113624;28;20055;-72
2022/08/18 05:22:17;;;;;;;10.27;7.13;;;;;;;26.62;61.65;100534.00;5114202;28;20052;-73
2022/08/18 05:24:48;;;;;;;10.13;7.65;;;;;;;26.61;61.70;100521.44;5097883;28;20078;-73
2022/08/18 05:27:15;;;;;;;7.15;6.45;;;;;;;26.61;61.48;100513.28;5113412;28;20059;-73
2022/08/18 05:29:43;;;;;;;8.32;6.90;;;;;;;26.61;61.60;100516.00;5113395;28;20054;-73
2022/08/18 05:32:13;;;;;;;9.70;7.07;;;;;;;26.61;61.55;100516.00;5102274;28;20062;-73
2022/08/18 05:35:08;;;;;;;9.27;7.40;;;;;;;26.60;61.58;100517.88;5095173;28;20044;-73
2022/08/18 05:37:44;;;;;;;11.00;7.70;;;;;;;26.59;61.50;100527.06;5093631;28;20491;-72
2022/08/18 05:40:14;;;;;;;8.60;7.60;;;;;;;26.60;61.30;100547.75;5095408;28;20044;-73
2022/08/18 05:42:42;;;;;;;12.93;7.13;;;;;;;26.60;61.39;100550.47;5095399;28;20048;-72
2022/08/18 05:45:14;;;;;;;9.65;7.10;;;;;;;26.60;61.34;100547.75;5094992;28;20044;-73
2022/08/18 05:47:41;;;;;;;7.87;6.20;;;;;;;26.61;61.35;100549.41;5095610;28;20059;-73
2022/08/18 05:50:16;;;;;;;10.27;6.75;;;;;;;26.62;61.36;100561.16;5093457;28;20059;-72
2022/08/18 05:53:08;;;;;;;12.02;7.25;;;;;;;26.62;61.46;100559.28;5095210;28;20044;-73
2022/08/18 05:58:40;;;;;;;9.45;6.82;;;;;;;26.64;61.72;100550.94;5051942;28;20049;-72
2022/08/18 06:01:21;;;;;;;9.35;7.40;;;;;;;26.65;61.63;100557.19;5052665;28;20452;-73
2022/08/18 06:04:13;;;;;;;8.95;7.05;;;;;;;26.63;61.78;100566.38;5052149;28;20060;-73
2022/08/18 06:06:43;;;;;;;11.37;7.40;;;;;;;26.64;61.50;100586.22;5044642;28;20072;-73
2022/08/18 06:09:21;;;;;;;11.30;7.57;;;;;;;26.65;61.65;100581.63;5052363;28;20057;-73
2022/08/18 06:11:49;;;;;;;10.88;6.93;;;;;;;26.65;61.39;100578.91;5052585;28;20056;-73
2022/08/18 06:14:18;;;;;;;11.00;7.60;;;;;;;26.65;62.02;100596.06;5052153;28;20061;-73
2022/08/18 06:16:57;;;;;;;12.00;7.43;;;;;;;26.65;62.04;100620.50;5051880;28;20060;-73
2022/08/18 06:19:41;;;;;;;8.38;7.30;;;;;;;26.67;62.00;100647.47;5051906;28;20061;-72
2022/08/18 06:22:27;;;;;;;9.70;6.70;;;;;;;26.68;61.65;100657.31;5052326;28;20059;-73
2022/08/18 06:25:15;;;;;;;10.95;6.82;;;;;;;26.68;62.45;100646.44;5052257;28;20084;-73
2022/08/18 06:28:14;;;;;;;9.32;7.57;;;;;;;26.70;62.27;100633.50;5052076;28;20052;-74
2022/08/18 06:31:01;;;;;;;8.15;6.72;;;;;;;26.70;63.00;100649.81;5051225;28;20164;-72
2022/08/18 06:33:43;;;;;;;10.82;7.05;;;;;;;26.69;62.24;100675.28;5085159;28;20063;-73
2022/08/18 06:36:31;;;;;;;12.10;6.13;;;;;;;26.71;62.31;100684.09;5094259;28;20044;-73
2022/08/18 06:39:10;;;;;;;8.23;6.97;;;;;;;26.72;63.10;100677.63;5094408;28;20044;-73
2022/08/18 06:41:45;;;;;;;10.18;7.65;;;;;;;26.71;63.05;100701.22;5094248;28;20047;-73
2022/08/18 06:44:49;;;;;;;11.27;7.53;;;;;;;26.70;62.99;100694.13;5092448;28;20048;-73
2022/08/18 06:47:31;;;;;;;10.13;7.05;;;;;;;26.70;62.84;100655.22;5093596;28;20036;-73
2022/08/18 06:50:16;;;;;;;13.68;7.78;;;;;;;26.70;63.03;100655.22;5092614;28;20510;-73
2022/08/18 06:52:59;;;;;;;10.07;6.75;;;;;;;26.69;62.89;100639.97;5094290;28;20055;-73
2022/08/18 06:55:38;;;;;;;12.88;7.03;;;;;;;26.69;62.59;100646.25;5094179;28;20043;-73
2022/08/18 06:58:29;;;;;;;10.18;7.78;;;;;;;26.70;62.66;100652.50;5093621;28;20044;-73
2022/08/18 07:01:04;;;;;;;8.32;7.10;;;;;;;26.70;62.73;100669.69;5093952;28;20055;-73
2022/08/18 07:03:35;;;;;;;10.85;7.00;;;;;;;26.69;62.60;100665.25;5093442;28;20503;-74
2022/08/18 07:06:22;;;;;;;11.05;6.75;;;;;;;26.70;62.68;100645.25;5092815;28;20044;-73
2022/08/18 07:08:55;;;;;;;7.80;6.95;;;;;;;26.70;62.56;100642.53;5094489;28;20048;-73
2022/08/18 07:11:32;;;;;;;9.82;6.80;;;;;;;26.71;62.86;100637.94;5098249;28;20063;-73
2022/08/18 07:14:23;;;;;;;10.30;7.55;;;;;;;26.72;62.98;100604.31;5098246;28;20052;-73
2022/08/18 07:17:06;;;;;;;8.88;7.18;;;;;;;26.71;63.01;100573.59;5097883;28;20044;-73
2022/08/18 07:19:33;;;;;;;7.07;5.70;;;;;;;26.71;62.55;100543.72;5098403;28;20040;-73
2022/08/18 07:22:04;;;;;;;9.30;5.93;;;;;;;26.71;62.60;100551.88;5097430;28;20067;-73
2022/08/18 07:24:37;;;;;;;10.20;6.78;;;;;;;26.71;62.83;100557.31;5097509;28;20048;-73
2022/08/18 07:27:17;;;;;;;8.65;6.13;;;;;;;26.72;62.77;100539.13;5097501;28;20450;-73
2022/08/18 07:30:07;;;;;;;10.52;7.13;;;;;;;26.72;62.40;100520.13;5097781;28;20048;-73
2022/08/18 07:32:46;;;;;;;9.70;7.25;;;;;;;26.72;62.38;100566.28;5098176;28;20051;-73
2022/08/18 07:35:25;;;;;;;9.00;7.07;;;;;;;26.72;62.90;100578.00;5096146;28;20048;-73
2022/08/18 07:37:59;;;;;;;10.13;6.47;;;;;;;26.73;62.80;100573.41;5097817;28;20483;-72
2022/08/18 07:40:45;;;;;;;9.25;7.13;;;;;;;26.73;62.58;100570.69;5097522;28;20043;-73
2022/08/18 07:43:27;;;;;;;7.97;6.40;;;;;;;26.73;62.86;100562.53;5097622;28;20051;-73
2022/08/18 07:46:12;;;;;;;8.40;6.60;;;;;;;26.73;62.45;100567.97;5096451;28;20059;-73
2022/08/18 07:48:39;;;;;;;7.97;6.72;;;;;;;26.73;62.84;100576.13;5097543;28;20047;-73
2022/08/18 07:51:12;;;;;;;7.82;6.47;;;;;;;26.74;62.83;100602.22;5097023;28;20491;-73
2022/08/18 07:53:46;;;;;;;8.20;6.53;;;;;;;26.74;62.74;100619.41;5097441;28;20047;-73
2022/08/18 07:56:31;;;;;;;11.40;6.90;;;;;;;26.74;62.51;100621.25;5096891;28;20504;-73
2022/08/18 07:59:12;;;;;;;8.27;6.80;;;;;;;26.72;62.64;100618.72;5096410;28;20047;-72
2022/08/18 08:01:48;;;;;;;7.28;5.57;;;;;;;26.73;62.65;100609.53;5097276;28;20044;-73
2022/08/18 08:04:38;;;;;;;8.30;6.28;;;;;;;26.72;62.77;100602.44;5095530;28;20071;-73
2022/08/18 08:07:16;;;;;;;8.35;6.13;;;;;;;26.73;62.83;100585.09;5096929;28;20048;-72
2022/08/18 08:10:23;;;;;;;7.43;6.22;;;;;;;26.72;62.47;100531.81;5096835;28;20055;-73
2022/08/18 08:13:22;;;;;;;10.48;6.35;;;;;;;26.73;62.27;100470.22;5079111;28;20059;-72
2022/08/18 08:16:24;;;;;;;9.48;7.45;;;;;;;26.71;62.47;100459.53;5096625;28;20051;-72
2022/08/18 08:19:21;;;;;;;9.20;6.75;;;;;;;26.70;62.79;100459.72;5096808;28;20055;-73
2022/08/18 08:22:20;;;;;;;7.70;6.13;;;;;;;26.63;63.26;100465.09;5094580;28;20380;-72
2022/08/18 08:24:55;;;;;;;9.68;6.57;;;;;;;26.60;63.59;100444.56;5097005;28;20479;-73
2022/08/18 08:27:33;;;;;;;8.68;6.72;;;;;;;26.55;63.65;100444.31;5096581;28;20467;-73
2022/08/18 08:30:06;;;;;;;8.50;6.18;;;;;;;26.51;64.16;100451.13;5096861;28;20044;-72
2022/08/18 08:32:55;;;;;;;7.47;5.82;;;;;;;26.46;64.30;100475.28;5096198;28;20044;-72
2022/08/18 08:35:53;;;;;;;6.97;5.70;;;;;;;26.44;64.51;100528.03;5096572;28;20048;-73
2022/08/18 08:38:45;;;;;;;6.10;5.45;;;;;;;26.39;64.59;100558.47;5096308;28;20062;-74
2022/08/18 08:41:27;;;;;;;6.28;5.32;;;;;;;26.36;64.65;100575.09;5095484;28;20048;-73
2022/08/18 08:44:09;;;;;;;8.13;6.68;;;;;;;26.34;65.26;100582.59;5096646;28;20040;-73
2022/08/18 08:46:45;;;;;;;10.50;7.03;;;;;;;26.24;65.01;100598.28;5096428;28;20044;-74
2022/08/18 08:49:33;;;;;;;8.85;6.22;;;;;;;26.18;64.87;100607.19;5096290;28;20044;-74
2022/08/18 08:52:08;;;;;;;11.15;6.68;;;;;;;26.18;65.31;100626.19;5095968;28;20403;-72
2022/08/18 08:54:40;;;;;;;10.82;6.95;;;;;;;26.18;65.61;100637.88;5091674;28;20404;-72
2022/08/18 08:57:09;;;;;;;8.68;6.60;;;;;;;26.19;65.19;100676.69;5074648;28;20044;-73
2022/08/18 08:59:39;;;;;;;9.38;6.55;;;;;;;26.17;65.47;100693.16;5074364;28;20032;-72
2022/08/18 09:02:11;;;;;;;9.23;7.55;;;;;;;26.14;65.72;100707.09;5074942;28;20484;-73
2022/08/18 09:05:30;;;;;;;9.93;8.60;;;;;;;26.06;66.28;100617.63;5082675;28;20451;-73
2022/08/18 09:08:01;;;;;;;11.95;10.02;;;;;;;25.96;66.69;100563.59;5094111;28;20063;-72
2022/08/18 09:10:50;;;;;;;15.10;11.05;;;;;;;25.93;67.44;100539.56;5094988;28;20047;-72
2022/08/18 09:13:27;;;;;;;13.23;9.23;;;;;;;25.88;66.94;100563.66;5087079;28;20048;-74
2022/08/18 09:16:28;;;;;;;10.45;8.50;;;;;;;25.88;67.20;100594.31;5073470;28;20064;-72
2022/08/18 09:19:23;;;;;;;10.43;7.97;;;;;;;25.93;67.24;100648.06;5052964;28;20064;-73
2022/08/18 09:22:18;;;;;;;13.98;10.20;;;;;;;25.94;67.17;100668.72;5052879;28;20045;-73
2022/08/18 09:24:51;;;;;;;14.63;10.65;;;;;;;25.94;67.01;100676.88;5052640;28;20060;-72
2022/08/18 09:27:37;;;;;;;12.65;10.77;;;;;;;25.91;67.11;100690.78;5052492;28;20057;-73
2022/08/18 09:30:55;;;;;;;13.95;10.45;;;;;;;25.88;67.32;100770.63;5039428;28;20076;-72
2022/08/18 09:33:30;;;;;;;16.30;11.45;;;;;;;25.84;67.49;100834.38;5035040;28;20071;-72
2022/08/18 09:36:19;;;;;;;16.63;13.07;;;;;;;25.78;67.78;100732.03;5035942;28;20057;-72
2022/08/18 09:42:37;;;;;;;10.52;8.93;;;;;;;25.76;67.26;100237.00;5051832;28;20163;-72
2022/08/18 09:45:28;;;;;;;11.68;7.68;;;;;;;25.77;67.15;100244.13;5035757;28;20049;-72
2022/08/18 09:48:25;;;;;;;13.07;9.02;;;;;;;25.78;66.98;100259.38;5052562;28;20052;-72
2022/08/18 09:51:17;;;;;;;10.57;9.45;;;;;;;25.77;66.94;100195.31;5052244;28;20052;-72
2022/08/18 09:53:45;;;;;;;8.77;6.97;;;;;;;25.73;67.13;100264.50;5052325;28;20045;-72
2022/08/18 09:56:15;;;;;;;8.13;5.93;;;;;;;25.58;67.48;100297.84;5053348;28;20045;-74
2022/08/18 09:58:48;;;;;;;9.20;7.40;;;;;;;25.36;67.94;100309.59;5073889;28;20476;-72
2022/08/18 10:01:30;;;;;;;6.82;5.68;;;;;;;25.02;69.07;100335.25;5073815;28;20400;-72
2022/08/18 10:04:13;;;;;;;7.03;6.05;;;;;;;25.04;69.01;100373.84;5073339;28;20049;-73
2022/08/18 10:06:44;;;;;;;8.02;6.93;;;;;;;24.57;70.98;100433.50;5085997;28;20044;-72
2022/08/18 10:09:46;;;;;;;7.07;5.60;;;;;;;24.84;70.02;100405.13;5091971;28;20464;-72
2022/08/18 10:12:28;;;;;;;6.18;5.50;;;;;;;25.03;69.93;100391.09;5078596;28;20060;-72
2022/08/18 10:15:31;;;;;;;8.55;5.53;;;;;;;25.17;69.64;100348.06;5076748;28;20056;-72
2022/08/18 10:18:16;;;;;;;8.57;5.03;;;;;;;25.29;68.92;100341.19;5074831;28;20040;-72
2022/08/18 10:21:06;;;;;;;8.35;4.53;;;;;;;25.35;68.08;100375.66;5074616;28;20048;-72
2022/08/18 10:23:52;;;;;;;6.13;3.67;;;;;;;25.38;67.27;100389.69;5053378;28;20037;-72
2022/08/18 10:26:40;;;;;;;4.95;3.55;;;;;;;25.42;66.96;100411.84;5066033;28;20044;-72
2022/08/18 10:29:24;;;;;;;10.85;4.18;;;;;;;25.44;67.05;100422.50;5073794;28;20049;-72
2022/08/18 10:31:58;;;;;;;6.68;3.78;;;;;;;25.44;67.00;100439.59;5073296;28;20407;-73
2022/08/18 10:34:40;;;;;;;8.95;4.30;;;;;;;25.43;67.01;100450.63;5085644;28;20044;-72
2022/08/18 10:37:25;;;;;;;5.32;2.63;;;;;;;25.37;65.77;100447.63;5093858;28;20044;-72
2022/08/18 10:40:00;;;;;;;3.45;2.60;;;;;;;25.31;65.18;100432.06;5093830;28;20055;-72
2022/08/18 10:42:33;;;;;;;3.80;2.70;;;;;;;25.23;64.76;100406.91;5093473;28;20048;-71
2022/08/18 10:45:15;;;;;;;8.43;2.72;;;;;;;25.05;65.18;100394.50;5061890;28;20049;-71
2022/08/18 10:48:17;;;;;;;3.53;2.60;;;;;;;24.80;66.02;100364.03;5053171;28;20496;-72
2022/08/18 10:51:11;;;;;;;4.18;2.88;;;;;;;24.62;66.48;100361.59;5069399;28;20051;-72
2022/08/18 10:54:14;;;;;;;5.07;2.70;;;;;;;24.51;66.99;100321.41;5073258;28;20472;-71
2022/08/18 10:57:04;;;;;;;5.05;2.80;;;;;;;24.42;67.59;100308.94;5071338;28;20052;-72
2022/08/18 10:59:39;;;;;;;3.85;2.20;;;;;;;24.38;67.40;100275.13;5072089;28;20484;-71
2022/08/18 11:02:34;;;;;;;4.88;2.53;;;;;;;24.38;67.13;100250.78;5073427;28;20047;-71
2022/08/18 11:05:07;;;;;;;3.38;2.15;;;;;;;24.46;67.07;100249.91;5073558;28;20048;-72
2022/08/18 11:07:37;;;;;;;5.38;2.17;;;;;;;24.53;67.02;100245.47;5072137;28;20407;-71
2022/08/18 11:10:18;;;;;;;4.00;2.00;;;;;;;24.63;66.84;100264.97;5073018;28;20491;-72
2022/08/18 11:13:24;;;;;;;2.78;1.88;;;;;;;24.73;66.54;100267.47;5083455;28;20036;-72
2022/08/18 11:16:11;;;;;;;4.70;2.28;;;;;;;24.79;67.01;100267.56;5076066;28;20047;-72
2022/08/18 11:18:43;;;;;;;5.72;2.10;;;;;;;24.83;66.88;100287.00;5074071;28;20049;-72
2022/08/18 11:21:34;;;;;;;2.85;1.95;;;;;;;24.89;67.07;100321.50;5081906;28;20380;-72
2022/08/18 11:24:23;;;;;;;3.38;2.38;;;;;;;24.92;66.39;100361.75;5052638;28;20503;-72
2022/08/18 11:27:00;;;;;;;3.63;1.90;;;;;;;24.96;66.87;100394.75;5071911;28;20044;-72
2022/08/18 11:29:40;;;;;;;3.55;2.30;;;;;;;24.99;67.20;100395.19;5075213;28;20051;-72
2022/08/18 11:32:15;;;;;;;3.53;2.40;;;;;;;25.02;67.59;100408.38;5073175;28;20048;-72
2022/08/18 11:34:52;;;;;;;3.47;2.50;;;;;;;25.07;67.65;100408.69;5055356;28;20381;-72
2022/08/18 11:37:19;;;;;;;6.07;2.42;;;;;;;25.13;67.05;100412.59;5071639;28;20053;-72
2022/08/18 11:39:49;;;;;;;4.68;2.47;;;;;;;25.18;66.97;100412.03;5088150;28;20061;-72
2022/08/18 11:42:25;;;;;;;5.93;3.05;;;;;;;25.22;68.33;100408.78;5093229;28;20056;-73
2022/08/18 11:45:00;;;;;;;7.45;3.40;;;;;;;25.25;68.82;100407.59;5092919;28;20048;-73
2022/08/18 11:47:29;;;;;;;3.72;3.00;;;;;;;25.29;68.59;100414.34;5092842;28;20106;-73
2022/08/18 11:50:08;;;;;;;4.82;3.25;;;;;;;25.32;68.31;100408.53;5084407;28;20044;-73
2022/08/18 11:52:50;;;;;;;3.92;3.10;;;;;;;25.36;67.95;100407.13;5072477;28;20052;-72
2022/08/18 11:55:33;;;;;;;4.78;2.67;;;;;;;25.40;67.98;100406.63;5071986;28;20052;-73
2022/08/18 11:58:03;;;;;;;5.78;2.88;;;;;;;25.45;67.11;100407.94;5071889;28;20053;-73
2022/08/18 12:00:44;;;;;;;4.97;3.38;;;;;;;25.47;68.47;100401.28;5060543;28;20047;-73
2022/08/18 12:03:42;;;;;;;4.93;3.47;;;;;;;25.43;68.38;100405.41;5074608;28;20060;-73
2022/08/18 12:06:11;;;;;;;4.70;3.50;;;;;;;25.37;69.09;100398.84;5075320;28;20582;-73
2022/08/18 12:09:13;;;;;;;6.32;4.60;;;;;;;25.33;69.90;100408.38;5074496;28;20044;-72
2022/08/18 12:12:00;;;;;;;7.32;3.83;;;;;;;25.31;69.72;100410.41;5075833;28;20049;-72
2022/08/18 12:14:50;;;;;;;6.78;4.18;;;;;;;25.32;71.64;100417.53;5075566;28;20052;-72
2022/08/18 12:17:18;;;;;;;5.95;4.50;;;;;;;25.31;70.55;100414.97;5095220;28;20052;-72
2022/08/18 12:19:46;;;;;;;5.15;4.03;;;;;;;25.30;71.07;100427.69;5095955;28;20044;-72
2022/08/18 12:22:26;;;;;;;6.15;4.47;;;;;;;25.30;70.35;100429.56;5095916;28;20043;-73
2022/08/18 12:24:54;;;;;;;5.60;3.67;;;;;;;25.28;69.28;100426.16;5094968;28;20044;-72